Plymouth, MA (02360)

9:52 PM EDT on September 04, 2015 (GMT -0400)
Clark Estates | | Change Station
CLOSE
Current Station
Personal Weather Station
Location: Plymouth, MA
Elevation: 177 ft
Nearby Weather Stations

Elev 177 ft 41.87 °N, 70.59 °W | Updated 11 minutes ago

Mostly Cloudy
Mostly Cloudy
60.8 °F
Feels Like 60.8 °F
N
1.1
Wind Variable Wind from NNW

Today
High -- | Low -- °F
--% Chance of Precip.
Yesterday
High -- | Low -- °F
Precip. -- in
6:11 AM 7:11 PM
Waning Gibbous, 54% visible
Pressure 30.24 in
Visibility 10.0 miles
Clouds Scattered Clouds 1100 ft
Dew Point 60 °F
Humidity 97%
Rainfall 0.00 in
Snow Depth Not available.
UV 0 out of 12
Pollen 8.50 out of 12
Air Quality Not available.
Flu Activity Not available.
METAR KPYM 050052Z AUTO 03005KT 10SM SCT011 17/16 A3024 RMK AO2 SLP240 T01720161
Pressure 30.24 in
Visibility 10.0 miles
Clouds Scattered Clouds 1100 ft
Dew Point 60 °F
Humidity 97%
Rainfall 0.00 in
Snow Depth Not available.
UV 0 out of 12
Pollen 8.50 out of 12
Air Quality Not available.
Flu Activity Not available.
METAR KPYM 050052Z AUTO 03005KT 10SM SCT011 17/16 A3024 RMK AO2 SLP240 T01720161

10-Day Weather Forecast

×

Almanac

Astronomy

Sep. 04, 2015 Rise Set
Actual Time
Civil Twilight
Nautical Twilight
Astronomical Twilight
Moon
Length of Visible Light
Length of Day
Tomorrow will be .
, % of the Moon is Illuminated

Today's Extremes

State Highs State Lows

Community

WunderPhotos

Upload Photos

1,852,375 photos uploaded!

WunderBlogs® & News

Nearby

Air Quality

  Air Quality AQ Index Pollutant
Not available.

Snow Depth

Station Depth Elevation

Earthquake Activity

City Distance Mag. Time & Date
Minimum magnitude displayed is 2.5.

Coastal Water Temperatures

Place Temperature

Stations

Nearby Weather Stations

Station Location Temp. Windchill Dew Point Humidity Wind Precip. Elev Updated Type